EGJB - Guernsey Airport
Distance from station: E 5mi, 14km
Updated: 12/12/2017 11:20pm
Nearby showers, Partly cloudy
Nearby showers, Partly cloudy
 Wind from W
Wind: W 20 mph , 31 km/h
Temperature: 50°F , 10°C
Wind Chill: 44°F , 7°C
Dew Point: 45°F , 7°C
Humidity: 82%
Barometer: 29.68 inHg , 1005 hPa
Summary: Nearby Showers
Clouds: Partly Cloudy
Visibility: 6 miles , 10 km
Cloud details: Partly Cloudy 1800 ft
2017/12/13 07:20 EGJB 130720Z 26017KT 9999 VCSH SCT018 10/07 Q1005